Date,TemperatureHighF,TemperatureAvgF,TemperatureLowF,DewpointHighF,DewpointAvgF,DewpointLowF,HumidityHigh,HumidityAvg,HumidityLow,PressureMaxIn,PressureMinIn,WindSpeedMaxMPH,WindSpeedAvgMPH,GustSpeedMaxMPH,PrecipitationSumIn
2013-7-1,75.3,72.0,70.0,68.2,66.2,64.0,87,82,77,30.04,29.91,1,0,8,0.53
2013-7-2,86.5,74.8,69.6,68.5,66.1,63.0,91,76,46,30.15,30.03,6,0,14,0.01
2013-7-3,89.8,78.1,71.1,66.3,63.8,57.4,83,64,36,30.19,30.13,6,0,15,0.00
2013-7-4,94.4,79.8,69.0,67.6,62.7,56.6,82,59,29,30.20,30.10,7,1,15,0.02
2013-7-5,96.7,81.8,70.2,67.9,62.5,52.1,79,55,24,30.16,30.04,6,0,14,0.02
2013-7-6,93.9,80.1,70.9,67.5,61.5,52.0,78,56,26,30.08,30.00,6,0,14,0.01
2013-7-7,92.0,76.7,69.0,69.9,64.3,60.3,78,67,39,30.03,29.91,3,0,9,0.13
2013-7-8,88.0,76.7,68.4,67.9,62.3,55.7,87,64,36,30.01,29.90,6,0,13,0.01
2013-7-9,80.8,74.3,70.2,66.2,64.5,63.0,81,72,59,30.07,30.00,5,0,9,0.07
2013-7-10,79.9,74.0,70.2,69.9,67.1,63.9,88,79,65,30.02,29.77,6,0,12,1.11
2013-7-11,85.8,75.3,69.1,68.8,63.1,49.6,88,69,30,29.93,29.75,5,0,9,0.02
2013-7-12,81.4,72.5,65.9,57.7,52.7,50.0,67,51,35,30.17,29.93,6,0,14,0.02
2013-7-13,77.7,69.6,62.9,64.3,58.2,48.5,79,67,53,30.28,30.16,2,0,7,0.04
2013-7-14,95.0,79.2,68.9,67.2,63.3,54.8,85,62,27,30.30,30.20,5,0,10,0.02
2013-7-15,95.3,81.1,70.5,66.7,61.2,48.5,80,55,21,30.21,30.12,5,0,12,0.02
2013-7-16,95.7,80.8,68.5,63.5,57.3,44.7,72,48,19,30.17,30.12,5,0,12,0.02
2013-7-17,97.3,81.0,68.5,65.6,60.6,51.6,74,53,22,30.18,30.01,3,0,9,0.05
2013-7-18,98.7,83.5,72.4,68.2,61.1,49.8,78,51,21,30.01,29.94,5,0,11,0.04
2013-7-19,97.8,83.8,71.2,66.6,61.3,55.3,74,50,26,29.93,29.73,6,1,16,0.01
2013-7-20,90.3,79.4,71.3,67.1,58.9,50.8,71,51,31,29.81,29.67,6,0,15,0.03
2013-7-21,89.3,75.2,64.0,61.0,55.6,51.4,73,52,28,29.96,29.82,5,0,7,0.02
2013-7-22,87.6,73.9,63.7,64.7,58.1,54.7,76,60,34,29.98,29.82,2,0,8,0.07
2013-7-23,82.8,73.9,68.3,67.1,63.5,57.4,83,71,43,29.82,29.53,6,0,12,2.90
2013-7-24,84.0,72.3,63.4,64.1,53.4,40.9,81,55,24,29.97,29.58,6,1,15,0.02
2013-7-25,72.1,63.4,56.2,53.7,44.9,37.8,67,51,38,30.07,29.97,5,0,11,0.02
2013-7-26,78.9,66.6,61.4,56.8,52.8,47.7,77,63,39,30.04,29.96,3,0,10,0.16
2013-7-27,85.7,69.0,56.2,57.9,52.7,47.5,78,59,28,30.03,29.95,5,0,10,0.03
2013-7-28,80.0,70.6,62.4,62.0,56.9,52.5,79,63,43,29.99,29.93,2,0,9,0.01
2013-7-29,89.3,74.3,65.9,60.5,55.1,41.1,77,55,19,30.06,29.95,6,0,13,0.01
2013-7-30,85.1,70.4,58.4,51.6,46.9,37.9,69,46,19,30.11,30.04,6,0,13,0.02
2013-7-31,83.7,70.2,58.8,55.4,50.5,42.3,73,53,25,30.13,30.02,5,0,10,0.02